sensor_id;sensor_type;location;lat;lon;timestamp;pressure;altitude;pressure_sealevel;temperature;humidity
59073;BME280;44859;51.934;15.554;2023-05-15T00:01:00;99348.05;;;12.98;65.62
59073;BME280;44859;51.934;15.554;2023-05-15T00:03:29;99349.21;;;13.01;65.61
59073;BME280;44859;51.934;15.554;2023-05-15T00:05:58;99344.02;;;13.02;65.71
59073;BME280;44859;51.934;15.554;2023-05-15T00:08:27;99347.02;;;13.02;66.10
59073;BME280;44859;51.934;15.554;2023-05-15T00:11:01;99348.20;;;13.01;66.52
59073;BME280;44859;51.934;15.554;2023-05-15T00:13:37;99342.13;;;12.96;66.65
59073;BME280;44859;51.934;15.554;2023-05-15T00:16:07;99337.83;;;12.91;66.84
59073;BME280;44859;51.934;15.554;2023-05-15T00:18:39;99335.48;;;12.87;67.22
59073;BME280;44859;51.934;15.554;2023-05-15T00:21:08;99338.30;;;12.82;67.54
59073;BME280;44859;51.934;15.554;2023-05-15T00:23:36;99338.88;;;12.75;67.74
59073;BME280;44859;51.934;15.554;2023-05-15T00:26:05;99335.20;;;12.73;68.11
59073;BME280;44859;51.934;15.554;2023-05-15T00:28:34;99332.27;;;12.71;68.12
59073;BME280;44859;51.934;15.554;2023-05-15T00:31:02;99327.20;;;12.71;68.31
59073;BME280;44859;51.934;15.554;2023-05-15T00:33:31;99323.16;;;12.68;68.24
59073;BME280;44859;51.934;15.554;2023-05-15T00:35:59;99320.78;;;12.64;68.82
59073;BME280;44859;51.934;15.554;2023-05-15T00:38:28;99319.45;;;12.57;69.62
59073;BME280;44859;51.934;15.554;2023-05-15T00:40:57;99318.42;;;12.51;70.17
59073;BME280;44859;51.934;15.554;2023-05-15T00:43:26;99311.30;;;12.47;70.40
59073;BME280;44859;51.934;15.554;2023-05-15T00:45:56;99311.35;;;12.41;70.87
59073;BME280;44859;51.934;15.554;2023-05-15T00:48:26;99308.98;;;12.39;70.96
59073;BME280;44859;51.934;15.554;2023-05-15T00:50:56;99305.34;;;12.38;71.37
59073;BME280;44859;51.934;15.554;2023-05-15T00:53:26;99307.16;;;12.32;72.24
59073;BME280;44859;51.934;15.554;2023-05-15T00:55:57;99306.45;;;12.23;72.88
59073;BME280;44859;51.934;15.554;2023-05-15T00:58:26;99303.52;;;12.14;73.46
59073;BME280;44859;51.934;15.554;2023-05-15T01:00:55;99301.34;;;12.07;73.88
59073;BME280;44859;51.934;15.554;2023-05-15T01:03:27;99296.14;;;12.00;74.57
59073;BME280;44859;51.934;15.554;2023-05-15T01:05:56;99293.09;;;11.95;75.16
59073;BME280;44859;51.934;15.554;2023-05-15T01:08:44;99290.60;;;11.93;75.68
59073;BME280;44859;51.934;15.554;2023-05-15T01:11:14;99289.09;;;11.91;76.15
59073;BME280;44859;51.934;15.554;2023-05-15T01:13:43;99284.73;;;11.90;76.58
59073;BME280;44859;51.934;15.554;2023-05-15T01:16:12;99285.21;;;11.92;76.65
59073;BME280;44859;51.934;15.554;2023-05-15T01:18:40;99278.27;;;11.93;76.82
59073;BME280;44859;51.934;15.554;2023-05-15T01:30:26;99282.20;;;12.06;77.91
59073;BME280;44859;51.934;15.554;2023-05-15T01:35:32;99273.80;;;12.06;79.12
59073;BME280;44859;51.934;15.554;2023-05-15T01:44:34;99268.13;;;11.92;80.85
59073;BME280;44859;51.934;15.554;2023-05-15T01:47:07;99268.51;;;11.85;81.37
59073;BME280;44859;51.934;15.554;2023-05-15T01:49:59;99266.63;;;11.78;81.99
59073;BME280;44859;51.934;15.554;2023-05-15T01:52:34;99263.69;;;11.75;82.45
59073;BME280;44859;51.934;15.554;2023-05-15T01:58:24;99253.70;;;11.57;83.35
59073;BME280;44859;51.934;15.554;2023-05-15T02:00:54;99248.02;;;11.52;83.62
59073;BME280;44859;51.934;15.554;2023-05-15T02:03:23;99249.27;;;11.52;83.63
59073;BME280;44859;51.934;15.554;2023-05-15T02:05:53;99250.14;;;11.52;84.46
59073;BME280;44859;51.934;15.554;2023-05-15T02:08:23;99250.58;;;11.54;84.41
59073;BME280;44859;51.934;15.554;2023-05-15T02:10:57;99255.25;;;11.52;84.10
59073;BME280;44859;51.934;15.554;2023-05-15T02:13:29;99251.09;;;11.60;84.42
59073;BME280;44859;51.934;15.554;2023-05-15T02:15:59;99251.89;;;11.64;84.37
59073;BME280;44859;51.934;15.554;2023-05-15T02:18:28;99247.60;;;11.62;84.37
59073;BME280;44859;51.934;15.554;2023-05-15T02:20:56;99243.05;;;11.59;84.07
59073;BME280;44859;51.934;15.554;2023-05-15T02:23:25;99233.06;;;11.56;84.06
59073;BME280;44859;51.934;15.554;2023-05-15T02:28:49;99231.04;;;11.54;85.38
59073;BME280;44859;51.934;15.554;2023-05-15T02:31:34;99230.20;;;11.54;85.28
59073;BME280;44859;51.934;15.554;2023-05-15T02:34:16;99221.66;;;11.49;85.83
59073;BME280;44859;51.934;15.554;2023-05-15T02:36:46;99209.58;;;11.43;86.47
59073;BME280;44859;51.934;15.554;2023-05-15T02:39:22;99201.25;;;11.35;86.89
59073;BME280;44859;51.934;15.554;2023-05-15T02:41:52;99195.20;;;11.28;87.64
59073;BME280;44859;51.934;15.554;2023-05-15T02:44:21;99193.70;;;11.21;88.13
59073;BME280;44859;51.934;15.554;2023-05-15T02:46:51;99192.56;;;11.13;88.34
59073;BME280;44859;51.934;15.554;2023-05-15T02:49:38;99190.05;;;11.05;88.89
59073;BME280;44859;51.934;15.554;2023-05-15T02:52:28;99191.90;;;11.01;89.26
59073;BME280;44859;51.934;15.554;2023-05-15T02:54:58;99191.97;;;11.00;89.24
59073;BME280;44859;51.934;15.554;2023-05-15T02:57:27;99187.53;;;11.00;89.54
59073;BME280;44859;51.934;15.554;2023-05-15T02:59:55;99178.46;;;11.00;89.88
59073;BME280;44859;51.934;15.554;2023-05-15T03:02:24;99172.37;;;10.98;89.91
59073;BME280;44859;51.934;15.554;2023-05-15T03:04:53;99166.42;;;10.98;90.13
59073;BME280;44859;51.934;15.554;2023-05-15T03:07:21;99155.52;;;10.98;90.33
59073;BME280;44859;51.934;15.554;2023-05-15T03:09:50;99148.04;;;10.94;90.53
59073;BME280;44859;51.934;15.554;2023-05-15T03:12:18;99140.17;;;10.90;90.99
59073;BME280;44859;51.934;15.554;2023-05-15T03:14:47;99137.44;;;10.89;91.02
59073;BME280;44859;51.934;15.554;2023-05-15T03:17:15;99138.61;;;10.90;90.56
59073;BME280;44859;51.934;15.554;2023-05-15T03:19:43;99130.34;;;10.91;90.51
59073;BME280;44859;51.934;15.554;2023-05-15T03:25:41;99121.88;;;10.93;90.63
59073;BME280;44859;51.934;15.554;2023-05-15T03:28:09;99118.88;;;10.97;91.06
59073;BME280;44859;51.934;15.554;2023-05-15T03:30:38;99117.23;;;10.98;90.92
59073;BME280;44859;51.934;15.554;2023-05-15T03:33:07;99114.23;;;10.98;91.08
59073;BME280;44859;51.934;15.554;2023-05-15T03:35:36;99109.96;;;10.96;91.19
59073;BME280;44859;51.934;15.554;2023-05-15T03:38:04;99108.89;;;10.94;91.45
59073;BME280;44859;51.934;15.554;2023-05-15T03:40:53;99104.25;;;10.86;91.54
59073;BME280;44859;51.934;15.554;2023-05-15T03:43:24;99103.45;;;10.82;91.61
59073;BME280;44859;51.934;15.554;2023-05-15T03:45:53;99102.81;;;10.81;91.81
59073;BME280;44859;51.934;15.554;2023-05-15T03:48:21;99102.57;;;10.76;91.68
59073;BME280;44859;51.934;15.554;2023-05-15T03:50:50;99098.75;;;10.72;91.47
59073;BME280;44859;51.934;15.554;2023-05-15T03:53:19;99096.41;;;10.68;91.48
59073;BME280;44859;51.934;15.554;2023-05-15T03:55:47;99097.30;;;10.64;91.18
59073;BME280;44859;51.934;15.554;2023-05-15T03:58:16;99095.70;;;10.61;90.46
59073;BME280;44859;51.934;15.554;2023-05-15T04:01:13;99092.73;;;10.61;90.31
59073;BME280;44859;51.934;15.554;2023-05-15T04:03:42;99090.58;;;10.65;90.15
59073;BME280;44859;51.934;15.554;2023-05-15T04:06:11;99087.42;;;10.68;89.89
59073;BME280;44859;51.934;15.554;2023-05-15T04:08:39;99082.65;;;10.71;89.78
59073;BME280;44859;51.934;15.554;2023-05-15T04:11:09;99078.02;;;10.72;89.25
59073;BME280;44859;51.934;15.554;2023-05-15T04:13:39;99076.08;;;10.70;88.32
59073;BME280;44859;51.934;15.554;2023-05-15T04:16:07;99076.83;;;10.69;87.98
59073;BME280;44859;51.934;15.554;2023-05-15T04:18:37;99074.89;;;10.69;88.01
59073;BME280;44859;51.934;15.554;2023-05-15T04:23:48;99064.05;;;10.68;87.89
59073;BME280;44859;51.934;15.554;2023-05-15T04:26:17;99057.61;;;10.67;87.67
59073;BME280;44859;51.934;15.554;2023-05-15T04:28:46;99054.19;;;10.69;87.58
59073;BME280;44859;51.934;15.554;2023-05-15T04:31:31;99051.38;;;10.69;87.26
59073;BME280;44859;51.934;15.554;2023-05-15T04:34:02;99052.34;;;10.68;87.66
59073;BME280;44859;51.934;15.554;2023-05-15T04:36:32;99047.78;;;10.67;87.45
59073;BME280;44859;51.934;15.554;2023-05-15T04:39:03;99049.03;;;10.70;87.33
59073;BME280;44859;51.934;15.554;2023-05-15T04:44:20;99048.55;;;10.72;87.44
59073;BME280;44859;51.934;15.554;2023-05-15T04:46:49;99044.67;;;10.69;87.66
59073;BME280;44859;51.934;15.554;2023-05-15T04:52:05;99040.61;;;10.67;87.92
59073;BME280;44859;51.934;15.554;2023-05-15T04:54:35;99039.16;;;10.65;87.91
59073;BME280;44859;51.934;15.554;2023-05-15T04:57:13;99035.29;;;10.62;88.00
59073;BME280;44859;51.934;15.554;2023-05-15T04:59:44;99029.78;;;10.60;87.80
59073;BME280;44859;51.934;15.554;2023-05-15T05:02:12;99029.39;;;10.61;88.47
59073;BME280;44859;51.934;15.554;2023-05-15T05:04:42;99025.86;;;10.64;88.64
59073;BME280;44859;51.934;15.554;2023-05-15T05:07:13;99023.14;;;10.68;88.62
59073;BME280;44859;51.934;15.554;2023-05-15T05:09:42;99016.36;;;10.70;88.64
59073;BME280;44859;51.934;15.554;2023-05-15T05:12:10;99013.52;;;10.73;88.95
59073;BME280;44859;51.934;15.554;2023-05-15T05:18:08;99011.02;;;10.80;88.68
59073;BME280;44859;51.934;15.554;2023-05-15T05:20:37;99014.42;;;10.87;88.56
59073;BME280;44859;51.934;15.554;2023-05-15T05:26:34;99013.19;;;10.99;88.98
59073;BME280;44859;51.934;15.554;2023-05-15T05:29:03;99013.18;;;11.02;88.78
59073;BME280;44859;51.934;15.554;2023-05-15T05:31:32;99018.55;;;11.03;89.18
59073;BME280;44859;51.934;15.554;2023-05-15T05:34:00;99018.53;;;11.01;89.43
59073;BME280;44859;51.934;15.554;2023-05-15T05:36:29;99010.60;;;11.01;88.98
59073;BME280;44859;51.934;15.554;2023-05-15T05:38:57;99006.74;;;11.01;89.31
59073;BME280;44859;51.934;15.554;2023-05-15T05:41:52;99011.31;;;11.03;89.39
59073;BME280;44859;51.934;15.554;2023-05-15T05:44:23;99010.73;;;11.07;89.71
59073;BME280;44859;51.934;15.554;2023-05-15T05:47:02;99014.85;;;11.08;89.70
59073;BME280;44859;51.934;15.554;2023-05-15T05:49:30;99019.91;;;11.12;89.77
59073;BME280;44859;51.934;15.554;2023-05-15T05:52:08;99021.84;;;11.09;89.63
59073;BME280;44859;51.934;15.554;2023-05-15T05:54:36;99018.63;;;11.09;89.94
59073;BME280;44859;51.934;15.554;2023-05-15T05:57:05;99021.56;;;11.08;90.22
59073;BME280;44859;51.934;15.554;2023-05-15T05:59:34;99019.30;;;11.05;90.45
59073;BME280;44859;51.934;15.554;2023-05-15T06:02:09;99015.19;;;11.03;90.89
59073;BME280;44859;51.934;15.554;2023-05-15T06:04:38;99015.71;;;11.00;91.17
59073;BME280;44859;51.934;15.554;2023-05-15T06:07:27;99014.67;;;11.00;91.02
59073;BME280;44859;51.934;15.554;2023-05-15T06:10:46;99013.34;;;11.05;91.44
59073;BME280;44859;51.934;15.554;2023-05-15T06:13:45;99008.50;;;11.06;91.30
59073;BME280;44859;51.934;15.554;2023-05-15T06:16:13;99002.89;;;11.09;91.61
59073;BME280;44859;51.934;15.554;2023-05-15T06:18:42;98996.98;;;11.10;91.87
59073;BME280;44859;51.934;15.554;2023-05-15T06:21:12;98992.71;;;11.11;91.91
59073;BME280;44859;51.934;15.554;2023-05-15T06:23:41;98988.50;;;11.11;91.96
59073;BME280;44859;51.934;15.554;2023-05-15T06:26:09;98986.58;;;11.11;92.39
59073;BME280;44859;51.934;15.554;2023-05-15T06:28:38;98982.46;;;11.12;92.34
59073;BME280;44859;51.934;15.554;2023-05-15T06:31:06;98977.35;;;11.15;92.47
59073;BME280;44859;51.934;15.554;2023-05-15T06:33:38;98974.80;;;11.13;92.85
59073;BME280;44859;51.934;15.554;2023-05-15T06:36:10;98969.59;;;11.13;92.71
59073;BME280;44859;51.934;15.554;2023-05-15T06:38:39;98967.27;;;11.13;93.18
59073;BME280;44859;51.934;15.554;2023-05-15T06:41:07;98966.38;;;11.16;93.36
59073;BME280;44859;51.934;15.554;2023-05-15T06:43:36;98965.73;;;11.19;93.41
59073;BME280;44859;51.934;15.554;2023-05-15T06:46:05;98957.42;;;11.22;93.60
59073;BME280;44859;51.934;15.554;2023-05-15T06:48:55;98960.51;;;11.26;94.18
59073;BME280;44859;51.934;15.554;2023-05-15T06:51:23;98957.19;;;11.23;93.32
59073;BME280;44859;51.934;15.554;2023-05-15T06:53:52;98954.04;;;11.25;93.85
59073;BME280;44859;51.934;15.554;2023-05-15T06:56:21;98951.52;;;11.26;93.71
59073;BME280;44859;51.934;15.554;2023-05-15T06:58:50;98948.30;;;11.24;93.82
59073;BME280;44859;51.934;15.554;2023-05-15T07:01:18;98943.91;;;11.27;94.18
59073;BME280;44859;51.934;15.554;2023-05-15T07:03:46;98939.55;;;11.32;94.80
59073;BME280;44859;51.934;15.554;2023-05-15T07:06:24;98940.78;;;11.34;94.60
59073;BME280;44859;51.934;15.554;2023-05-15T07:08:53;98941.80;;;11.35;95.28
59073;BME280;44859;51.934;15.554;2023-05-15T07:11:22;98936.70;;;11.32;94.99
59073;BME280;44859;51.934;15.554;2023-05-15T07:13:52;98934.59;;;11.30;95.69
59073;BME280;44859;51.934;15.554;2023-05-15T07:16:20;98928.88;;;11.31;95.59
59073;BME280;44859;51.934;15.554;2023-05-15T07:18:49;98928.32;;;11.34;95.93
59073;BME280;44859;51.934;15.554;2023-05-15T07:21:18;98926.84;;;11.35;96.40
59073;BME280;44859;51.934;15.554;2023-05-15T07:23:49;98928.67;;;11.37;96.15
59073;BME280;44859;51.934;15.554;2023-05-15T07:26:18;98925.95;;;11.35;96.55
59073;BME280;44859;51.934;15.554;2023-05-15T07:29:05;98918.38;;;11.33;97.33
59073;BME280;44859;51.934;15.554;2023-05-15T07:31:34;98916.14;;;11.32;97.65
59073;BME280;44859;51.934;15.554;2023-05-15T07:34:02;98918.45;;;11.37;97.36
59073;BME280;44859;51.934;15.554;2023-05-15T07:36:31;98913.23;;;11.42;97.48
59073;BME280;44859;51.934;15.554;2023-05-15T07:39:00;98915.08;;;11.43;97.69
59073;BME280;44859;51.934;15.554;2023-05-15T07:41:29;98912.00;;;11.47;97.63
59073;BME280;44859;51.934;15.554;2023-05-15T07:44:00;98908.45;;;11.50;98.33
59073;BME280;44859;51.934;15.554;2023-05-15T07:46:34;98905.44;;;11.56;98.14
59073;BME280;44859;51.934;15.554;2023-05-15T07:49:03;98904.75;;;11.66;98.38
59073;BME280;44859;51.934;15.554;2023-05-15T07:51:31;98901.41;;;11.74;98.44
59073;BME280;44859;51.934;15.554;2023-05-15T07:54:00;98898.64;;;11.76;98.33
59073;BME280;44859;51.934;15.554;2023-05-15T07:56:30;98898.79;;;11.79;98.92
59073;BME280;44859;51.934;15.554;2023-05-15T07:58:59;98898.31;;;11.81;99.02
59073;BME280;44859;51.934;15.554;2023-05-15T08:01:28;98896.04;;;11.88;99.13
59073;BME280;44859;51.934;15.554;2023-05-15T08:03:59;98889.68;;;11.92;99.01
59073;BME280;44859;51.934;15.554;2023-05-15T08:06:28;98889.98;;;11.95;98.85
59073;BME280;44859;51.934;15.554;2023-05-15T08:08:56;98891.33;;;11.94;99.25
59073;BME280;44859;51.934;15.554;2023-05-15T08:14:15;98886.66;;;11.95;99.19
59073;BME280;44859;51.934;15.554;2023-05-15T08:16:43;98882.35;;;11.99;99.65
59073;BME280;44859;51.934;15.554;2023-05-15T08:19:12;98878.85;;;11.96;99.63
59073;BME280;44859;51.934;15.554;2023-05-15T08:21:41;98875.95;;;12.00;99.77
59073;BME280;44859;51.934;15.554;2023-05-15T08:24:09;98870.48;;;12.00;99.66
59073;BME280;44859;51.934;15.554;2023-05-15T08:26:38;98869.09;;;12.05;99.82
59073;BME280;44859;51.934;15.554;2023-05-15T08:29:06;98868.98;;;12.01;99.93
59073;BME280;44859;51.934;15.554;2023-05-15T08:34:18;98861.98;;;12.06;99.96
59073;BME280;44859;51.934;15.554;2023-05-15T08:36:46;98865.44;;;12.07;99.99
59073;BME280;44859;51.934;15.554;2023-05-15T08:39:15;98867.29;;;12.05;100.00
59073;BME280;44859;51.934;15.554;2023-05-15T08:41:55;98862.52;;;12.08;100.00
59073;BME280;44859;51.934;15.554;2023-05-15T08:44:24;98859.63;;;12.10;100.00
59073;BME280;44859;51.934;15.554;2023-05-15T08:46:54;98858.88;;;12.10;100.00
59073;BME280;44859;51.934;15.554;2023-05-15T08:49:54;98859.25;;;12.12;100.00
59073;BME280;44859;51.934;15.554;2023-05-15T08:52:29;98855.25;;;12.09;100.00
59073;BME280;44859;51.934;15.554;2023-05-15T08:55:01;98857.85;;;12.04;100.00
59073;BME280;44859;51.934;15.554;2023-05-15T08:57:31;98854.90;;;12.04;100.00
59073;BME280;44859;51.934;15.554;2023-05-15T09:00:02;98852.77;;;12.07;99.97
59073;BME280;44859;51.934;15.554;2023-05-15T09:03:00;98852.95;;;12.07;99.93
59073;BME280;44859;51.934;15.554;2023-05-15T09:06:13;98851.61;;;12.06;100.00
59073;BME280;44859;51.934;15.554;2023-05-15T09:08:41;98850.48;;;12.07;99.90
59073;BME280;44859;51.934;15.554;2023-05-15T09:11:14;98852.42;;;12.04;99.85
59073;BME280;44859;51.934;15.554;2023-05-15T09:13:43;98850.42;;;12.05;100.00
59073;BME280;44859;51.934;15.554;2023-05-15T09:16:14;98850.47;;;12.07;99.96
59073;BME280;44859;51.934;15.554;2023-05-15T09:18:44;98847.79;;;12.08;99.91
59073;BME280;44859;51.934;15.554;2023-05-15T09:21:38;98843.91;;;12.08;99.88
59073;BME280;44859;51.934;15.554;2023-05-15T09:24:23;98839.69;;;12.10;99.89
59073;BME280;44859;51.934;15.554;2023-05-15T09:29:31;98842.30;;;12.13;100.00
59073;BME280;44859;51.934;15.554;2023-05-15T09:34:55;98840.89;;;12.15;100.00
59073;BME280;44859;51.934;15.554;2023-05-15T09:40:39;98841.16;;;12.14;100.00
59073;BME280;44859;51.934;15.554;2023-05-15T09:46:12;98838.83;;;12.20;100.00
59073;BME280;44859;51.934;15.554;2023-05-15T09:48:43;98838.41;;;12.26;100.00
59073;BME280;44859;51.934;15.554;2023-05-15T09:51:16;98838.01;;;12.24;100.00
59073;BME280;44859;51.934;15.554;2023-05-15T09:54:17;98835.86;;;12.19;100.00
59073;BME280;44859;51.934;15.554;2023-05-15T09:57:07;98838.67;;;12.12;100.00
59073;BME280;44859;51.934;15.554;2023-05-15T09:59:43;98836.00;;;12.15;100.00
59073;BME280;44859;51.934;15.554;2023-05-15T10:02:24;98834.42;;;12.12;100.00
59073;BME280;44859;51.934;15.554;2023-05-15T10:04:56;98836.60;;;12.11;100.00
59073;BME280;44859;51.934;15.554;2023-05-15T10:07:35;98834.77;;;12.10;100.00
59073;BME280;44859;51.934;15.554;2023-05-15T10:10:04;98835.11;;;12.02;100.00
59073;BME280;44859;51.934;15.554;2023-05-15T10:12:33;98833.54;;;12.00;100.00
59073;BME280;44859;51.934;15.554;2023-05-15T10:15:26;98833.45;;;12.06;100.00
59073;BME280;44859;51.934;15.554;2023-05-15T10:17:55;98831.48;;;12.09;100.00
59073;BME280;44859;51.934;15.554;2023-05-15T10:20:25;98834.09;;;12.07;100.00
59073;BME280;44859;51.934;15.554;2023-05-15T10:22:55;98829.40;;;12.04;100.00
59073;BME280;44859;51.934;15.554;2023-05-15T10:25:44;98827.89;;;12.02;100.00
59073;BME280;44859;51.934;15.554;2023-05-15T10:28:23;98828.33;;;12.01;100.00
59073;BME280;44859;51.934;15.554;2023-05-15T10:30:53;98827.48;;;12.01;100.00
59073;BME280;44859;51.934;15.554;2023-05-15T10:33:23;98825.77;;;11.95;100.00
59073;BME280;44859;51.934;15.554;2023-05-15T10:35:53;98828.73;;;11.93;100.00
59073;BME280;44859;51.934;15.554;2023-05-15T10:38:24;98828.01;;;11.93;100.00
59073;BME280;44859;51.934;15.554;2023-05-15T10:40:54;98824.80;;;11.94;100.00
59073;BME280;44859;51.934;15.554;2023-05-15T10:43:43;98824.27;;;11.88;100.00
59073;BME280;44859;51.934;15.554;2023-05-15T10:46:14;98820.91;;;11.86;100.00
59073;BME280;44859;51.934;15.554;2023-05-15T10:48:43;98823.92;;;11.85;100.00
59073;BME280;44859;51.934;15.554;2023-05-15T10:51:16;98822.17;;;11.85;100.00
59073;BME280;44859;51.934;15.554;2023-05-15T10:53:45;98821.13;;;11.82;100.00
59073;BME280;44859;51.934;15.554;2023-05-15T10:58:54;98815.73;;;11.79;100.00
59073;BME280;44859;51.934;15.554;2023-05-15T11:01:30;98812.53;;;11.80;100.00
59073;BME280;44859;51.934;15.554;2023-05-15T11:06:42;98812.83;;;11.68;100.00
59073;BME280;44859;51.934;15.554;2023-05-15T11:11:56;98804.36;;;11.66;100.00
59073;BME280;44859;51.934;15.554;2023-05-15T11:14:26;98804.02;;;11.61;100.00
59073;BME280;44859;51.934;15.554;2023-05-15T11:22:20;98802.41;;;11.71;100.00
59073;BME280;44859;51.934;15.554;2023-05-15T11:25:07;98797.88;;;11.73;100.00
59073;BME280;44859;51.934;15.554;2023-05-15T11:30:17;98790.53;;;11.80;100.00
59073;BME280;44859;51.934;15.554;2023-05-15T11:33:12;98787.38;;;11.83;100.00
59073;BME280;44859;51.934;15.554;2023-05-15T11:35:45;98787.13;;;11.86;100.00
59073;BME280;44859;51.934;15.554;2023-05-15T11:38:18;98785.02;;;11.92;100.00
59073;BME280;44859;51.934;15.554;2023-05-15T11:40:56;98781.80;;;11.92;100.00
59073;BME280;44859;51.934;15.554;2023-05-15T11:43:26;98782.33;;;11.95;100.00
59073;BME280;44859;51.934;15.554;2023-05-15T11:46:09;98776.85;;;12.00;100.00
59073;BME280;44859;51.934;15.554;2023-05-15T11:48:58;98776.04;;;12.09;100.00
59073;BME280;44859;51.934;15.554;2023-05-15T11:51:28;98772.72;;;12.11;100.00
59073;BME280;44859;51.934;15.554;2023-05-15T11:53:57;98773.47;;;12.09;100.00
59073;BME280;44859;51.934;15.554;2023-05-15T11:56:26;98775.52;;;12.04;100.00
59073;BME280;44859;51.934;15.554;2023-05-15T11:58:59;98774.17;;;12.13;100.00
59073;BME280;44859;51.934;15.554;2023-05-15T12:01:50;98771.73;;;12.28;100.00
59073;BME280;44859;51.934;15.554;2023-05-15T12:04:18;98774.95;;;12.37;100.00
59073;BME280;44859;51.934;15.554;2023-05-15T12:06:47;98774.05;;;12.39;100.00
59073;BME280;44859;51.934;15.554;2023-05-15T12:09:17;98774.83;;;12.34;100.00
59073;BME280;44859;51.934;15.554;2023-05-15T12:12:11;98773.41;;;12.29;100.00
59073;BME280;44859;51.934;15.554;2023-05-15T12:14:41;98769.50;;;12.27;100.00
59073;BME280;44859;51.934;15.554;2023-05-15T12:17:09;98771.20;;;12.25;100.00
59073;BME280;44859;51.934;15.554;2023-05-15T12:19:38;98772.97;;;12.28;100.00
59073;BME280;44859;51.934;15.554;2023-05-15T12:22:06;98778.85;;;12.21;100.00
59073;BME280;44859;51.934;15.554;2023-05-15T12:24:38;98776.23;;;12.12;100.00
59073;BME280;44859;51.934;15.554;2023-05-15T12:27:07;98775.11;;;12.05;100.00
59073;BME280;44859;51.934;15.554;2023-05-15T12:29:36;98774.83;;;11.99;100.00
59073;BME280;44859;51.934;15.554;2023-05-15T12:32:06;98774.09;;;11.95;100.00
59073;BME280;44859;51.934;15.554;2023-05-15T12:34:38;98770.58;;;11.89;100.00
59073;BME280;44859;51.934;15.554;2023-05-15T12:37:18;98766.30;;;11.82;100.00
59073;BME280;44859;51.934;15.554;2023-05-15T12:39:49;98768.98;;;11.81;100.00
59073;BME280;44859;51.934;15.554;2023-05-15T12:42:21;98765.64;;;11.79;100.00
59073;BME280;44859;51.934;15.554;2023-05-15T12:44:53;98769.07;;;11.83;100.00
59073;BME280;44859;51.934;15.554;2023-05-15T12:47:23;98771.94;;;11.84;100.00
59073;BME280;44859;51.934;15.554;2023-05-15T12:50:20;98769.70;;;11.81;100.00
59073;BME280;44859;51.934;15.554;2023-05-15T12:55:25;98765.40;;;11.87;100.00
59073;BME280;44859;51.934;15.554;2023-05-15T12:57:58;98768.30;;;11.94;100.00
59073;BME280;44859;51.934;15.554;2023-05-15T13:00:44;98772.62;;;12.00;100.00
59073;BME280;44859;51.934;15.554;2023-05-15T13:03:27;98770.79;;;12.01;100.00
59073;BME280;44859;51.934;15.554;2023-05-15T13:05:57;98767.76;;;11.92;100.00
59073;BME280;44859;51.934;15.554;2023-05-15T13:08:25;98766.13;;;11.90;100.00
59073;BME280;44859;51.934;15.554;2023-05-15T13:11:12;98765.50;;;11.94;100.00
59073;BME280;44859;51.934;15.554;2023-05-15T13:14:08;98762.32;;;12.02;100.00
59073;BME280;44859;51.934;15.554;2023-05-15T13:17:05;98759.16;;;12.04;100.00
59073;BME280;44859;51.934;15.554;2023-05-15T13:19:33;98756.52;;;12.06;100.00
59073;BME280;44859;51.934;15.554;2023-05-15T13:22:01;98757.33;;;12.05;100.00
59073;BME280;44859;51.934;15.554;2023-05-15T13:24:30;98757.73;;;12.02;100.00
59073;BME280;44859;51.934;15.554;2023-05-15T13:26:59;98759.23;;;12.06;100.00
59073;BME280;44859;51.934;15.554;2023-05-15T13:29:28;98760.80;;;12.08;100.00
59073;BME280;44859;51.934;15.554;2023-05-15T13:32:06;98754.95;;;11.99;100.00
59073;BME280;44859;51.934;15.554;2023-05-15T13:35:15;98759.61;;;11.93;100.00
59073;BME280;44859;51.934;15.554;2023-05-15T13:37:43;98754.41;;;11.94;100.00
59073;BME280;44859;51.934;15.554;2023-05-15T13:40:12;98755.52;;;11.94;100.00
59073;BME280;44859;51.934;15.554;2023-05-15T13:42:42;98755.00;;;11.93;100.00
59073;BME280;44859;51.934;15.554;2023-05-15T13:45:13;98753.81;;;11.92;100.00
59073;BME280;44859;51.934;15.554;2023-05-15T13:47:43;98756.27;;;11.95;100.00
59073;BME280;44859;51.934;15.554;2023-05-15T13:50:32;98758.40;;;12.00;100.00
59073;BME280;44859;51.934;15.554;2023-05-15T13:53:00;98757.38;;;12.02;100.00
59073;BME280;44859;51.934;15.554;2023-05-15T13:55:29;98758.35;;;11.98;100.00
59073;BME280;44859;51.934;15.554;2023-05-15T13:57:59;98759.63;;;11.90;100.00
59073;BME280;44859;51.934;15.554;2023-05-15T14:00:28;98760.31;;;11.79;100.00
59073;BME280;44859;51.934;15.554;2023-05-15T14:02:57;98758.96;;;11.74;100.00
59073;BME280;44859;51.934;15.554;2023-05-15T14:05:25;98756.84;;;11.74;100.00
59073;BME280;44859;51.934;15.554;2023-05-15T14:07:54;98756.71;;;11.76;100.00
59073;BME280;44859;51.934;15.554;2023-05-15T14:10:24;98753.83;;;11.79;100.00
59073;BME280;44859;51.934;15.554;2023-05-15T14:12:53;98752.38;;;11.80;100.00
59073;BME280;44859;51.934;15.554;2023-05-15T14:15:27;98751.11;;;11.80;100.00
59073;BME280;44859;51.934;15.554;2023-05-15T14:17:56;98752.86;;;11.83;100.00
59073;BME280;44859;51.934;15.554;2023-05-15T14:20:24;98747.83;;;11.84;100.00
59073;BME280;44859;51.934;15.554;2023-05-15T14:22:53;98748.88;;;11.85;100.00
59073;BME280;44859;51.934;15.554;2023-05-15T14:25:21;98746.91;;;11.90;100.00
59073;BME280;44859;51.934;15.554;2023-05-15T14:27:51;98745.02;;;11.92;100.00
59073;BME280;44859;51.934;15.554;2023-05-15T14:30:21;98742.94;;;12.00;100.00
59073;BME280;44859;51.934;15.554;2023-05-15T14:32:50;98742.69;;;12.06;100.00